createdAt,value
2018-03-30T00:00:45.421Z,2.57
2018-03-30T00:03:13.220Z,2.33
2018-03-30T00:05:40.917Z,2.60
2018-03-30T00:08:08.658Z,2.20
2018-03-30T00:10:42.104Z,1.60
2018-03-30T00:13:10.622Z,2.30
2018-03-30T00:15:38.326Z,3.70
2018-03-30T00:18:06.074Z,2.00
2018-03-30T00:20:33.837Z,1.90
2018-03-30T00:23:01.593Z,2.50
2018-03-30T00:25:29.349Z,2.03
2018-03-30T00:27:57.134Z,2.13
2018-03-30T00:30:24.826Z,2.20
2018-03-30T00:32:52.607Z,2.30
2018-03-30T00:35:20.299Z,2.00
2018-03-30T00:37:48.113Z,2.60
2018-03-30T00:40:15.990Z,1.80
2018-03-30T00:42:43.689Z,2.00
2018-03-30T00:45:12.243Z,2.50
2018-03-30T00:47:40.762Z,2.13
2018-03-30T00:50:09.227Z,2.03
2018-03-30T00:52:36.978Z,1.97
2018-03-30T00:55:04.753Z,2.00
2018-03-30T00:57:32.465Z,2.00
2018-03-30T01:00:00.232Z,2.03
2018-03-30T01:02:27.914Z,2.60
2018-03-30T01:04:55.686Z,1.43
2018-03-30T01:07:23.417Z,1.87
2018-03-30T01:09:51.191Z,1.63
2018-03-30T01:12:21.136Z,2.53
2018-03-30T01:14:48.868Z,2.00
2018-03-30T01:17:16.580Z,1.57
2018-03-30T01:19:44.278Z,1.57
2018-03-30T01:22:12.012Z,1.20
2018-03-30T01:24:39.806Z,1.50
2018-03-30T01:27:07.501Z,1.63
2018-03-30T01:29:35.250Z,1.60
2018-03-30T01:32:03.798Z,1.80
2018-03-30T01:34:31.497Z,1.60
2018-03-30T01:36:59.269Z,2.10
2018-03-30T01:39:27.159Z,1.37
2018-03-30T01:41:54.879Z,2.20
2018-03-30T01:44:22.642Z,1.70
2018-03-30T01:46:50.427Z,1.70
2018-03-30T01:49:18.126Z,1.43
2018-03-30T01:51:45.902Z,1.40
2018-03-30T01:54:13.683Z,1.33
2018-03-30T01:56:41.425Z,1.77
2018-03-30T01:59:09.190Z,1.53
2018-03-30T02:01:36.942Z,1.30
2018-03-30T02:04:04.702Z,1.50
2018-03-30T02:06:32.433Z,1.50
2018-03-30T02:09:00.224Z,1.73
2018-03-30T02:11:27.974Z,1.60
2018-03-30T02:13:55.737Z,1.93
2018-03-30T02:16:23.469Z,1.80
2018-03-30T02:18:51.184Z,1.70
2018-03-30T02:21:18.946Z,1.43
2018-03-30T02:23:46.634Z,1.73
2018-03-30T02:26:14.448Z,2.00
2018-03-30T02:28:42.218Z,1.90
2018-03-30T02:31:09.964Z,1.77
2018-03-30T02:33:37.704Z,2.13
2018-03-30T02:36:05.410Z,1.90
2018-03-30T02:38:33.158Z,2.70
2018-03-30T02:41:00.959Z,2.50
2018-03-30T02:43:28.669Z,1.80
2018-03-30T02:45:57.198Z,2.13
2018-03-30T02:48:24.919Z,2.83
2018-03-30T02:50:52.668Z,1.90
2018-03-30T02:53:20.461Z,2.40
2018-03-30T02:55:48.235Z,2.30
2018-03-30T02:58:15.999Z,2.20
2018-03-30T03:00:43.743Z,2.57
2018-03-30T03:03:11.522Z,2.63
2018-03-30T03:05:39.295Z,2.30
2018-03-30T03:08:07.014Z,3.37
2018-03-30T03:10:34.811Z,2.43
2018-03-30T03:13:02.626Z,2.30
2018-03-30T03:15:30.330Z,2.93
2018-03-30T03:17:58.073Z,2.83
2018-03-30T03:20:25.817Z,2.90
2018-03-30T03:22:53.530Z,2.63
2018-03-30T03:25:21.855Z,2.30
2018-03-30T03:27:49.554Z,3.20
2018-03-30T03:30:17.329Z,2.70
2018-03-30T03:32:45.118Z,3.67
2018-03-30T03:35:13.654Z,2.53
2018-03-30T03:37:41.428Z,2.70
2018-03-30T03:40:09.174Z,2.83
2018-03-30T03:42:36.898Z,2.57
2018-03-30T03:45:05.417Z,3.20
2018-03-30T03:47:33.203Z,2.57
2018-03-30T03:50:00.982Z,2.70
2018-03-30T03:52:28.722Z,3.27
2018-03-30T03:54:56.642Z,2.90
2018-03-30T03:57:24.359Z,3.07
2018-03-30T03:59:52.083Z,2.80
2018-03-30T04:02:20.590Z,2.93
2018-03-30T04:04:48.327Z,3.53
2018-03-30T04:07:16.048Z,2.73
2018-03-30T04:09:43.790Z,2.70
2018-03-30T04:12:11.479Z,2.90
2018-03-30T04:14:39.233Z,2.90
2018-03-30T04:17:06.979Z,3.20
2018-03-30T04:19:34.752Z,3.20
2018-03-30T04:22:02.533Z,3.50
2018-03-30T04:24:30.314Z,3.40
2018-03-30T04:26:58.058Z,3.87
2018-03-30T04:29:25.834Z,3.70
2018-03-30T04:31:53.613Z,2.97
2018-03-30T04:34:21.365Z,3.17
2018-03-30T04:36:49.085Z,2.70
2018-03-30T04:39:16.873Z,2.50
2018-03-30T04:41:44.569Z,3.60
2018-03-30T04:44:12.331Z,3.00
2018-03-30T04:46:40.139Z,2.80
2018-03-30T04:49:07.887Z,2.60
2018-03-30T04:51:35.593Z,2.67
2018-03-30T04:54:04.141Z,2.90
2018-03-30T04:56:31.869Z,3.17
2018-03-30T04:58:59.665Z,2.90
2018-03-30T05:01:30.953Z,2.93
2018-03-30T05:03:58.881Z,2.63
2018-03-30T05:06:26.645Z,2.83
2018-03-30T05:08:54.345Z,3.10
2018-03-30T05:11:22.113Z,3.00
2018-03-30T05:13:49.922Z,2.50
2018-03-30T05:16:17.613Z,3.50
2018-03-30T05:18:45.363Z,2.27
2018-03-30T05:21:13.122Z,3.40
2018-03-30T05:23:40.886Z,3.90
2018-03-30T05:26:08.603Z,2.57
2018-03-30T05:28:36.449Z,2.90
2018-03-30T05:31:04.265Z,3.10
2018-03-30T05:33:32.742Z,3.23
2018-03-30T05:36:00.470Z,3.03
2018-03-30T05:41:16.537Z,3.73
2018-03-30T05:43:45.201Z,3.27
2018-03-30T05:46:12.979Z,2.97
2018-03-30T05:48:41.592Z,3.20
2018-03-30T05:51:09.387Z,2.87
2018-03-30T05:53:37.166Z,2.97
2018-03-30T05:56:05.057Z,2.83
2018-03-30T05:58:32.813Z,3.33
2018-03-30T06:01:00.751Z,3.40
2018-03-30T06:03:28.478Z,3.10
2018-03-30T06:05:56.291Z,2.63
2018-03-30T06:08:24.056Z,3.00
2018-03-30T06:10:51.777Z,2.90
2018-03-30T06:13:19.557Z,2.90
2018-03-30T06:15:47.315Z,3.30
2018-03-30T06:18:15.010Z,3.43
2018-03-30T06:20:42.770Z,2.87
2018-03-30T06:23:10.945Z,2.60
2018-03-30T06:25:38.818Z,3.60
2018-03-30T06:28:06.693Z,3.37
2018-03-30T06:30:34.466Z,3.00
2018-03-30T06:33:02.263Z,3.07
2018-03-30T06:35:30.004Z,2.93
2018-03-30T06:37:57.782Z,3.03
2018-03-30T06:40:25.672Z,3.13
2018-03-30T06:42:53.402Z,2.97
2018-03-30T06:45:21.208Z,3.70
2018-03-30T06:47:49.087Z,3.30
2018-03-30T06:50:16.813Z,2.70
2018-03-30T06:52:44.703Z,3.40
2018-03-30T06:55:12.536Z,3.00
2018-03-30T06:57:40.323Z,3.23
2018-03-30T07:00:08.128Z,3.80
2018-03-30T07:02:36.007Z,2.57
2018-03-30T07:05:03.825Z,2.83
2018-03-30T07:07:31.541Z,2.70
2018-03-30T07:09:59.354Z,2.67
2018-03-30T07:12:27.181Z,2.30
2018-03-30T07:14:55.652Z,2.97
2018-03-30T07:17:23.502Z,2.80
2018-03-30T07:19:51.311Z,2.87
2018-03-30T07:22:19.109Z,3.93
2018-03-30T07:24:47.618Z,2.57
2018-03-30T07:27:16.069Z,2.87
2018-03-30T07:30:16.288Z,3.50
2018-03-30T07:35:24.045Z,2.90
2018-03-30T07:37:51.880Z,2.90
2018-03-30T07:40:19.649Z,2.37
2018-03-30T07:42:47.488Z,2.73
2018-03-30T07:45:15.340Z,2.80
2018-03-30T07:47:43.127Z,2.50
2018-03-30T07:50:11.022Z,3.20
2018-03-30T07:52:38.825Z,2.57
2018-03-30T07:55:06.974Z,2.30
2018-03-30T07:57:34.773Z,2.80
2018-03-30T08:00:02.642Z,4.13
2018-03-30T08:02:31.259Z,2.77
2018-03-30T08:04:59.127Z,3.70
2018-03-30T08:07:27.679Z,2.73
2018-03-30T08:09:56.196Z,2.00
2018-03-30T08:12:24.850Z,2.23
2018-03-30T08:14:52.586Z,2.40
2018-03-30T08:17:20.311Z,2.30
2018-03-30T08:19:48.050Z,2.07
2018-03-30T08:22:15.822Z,2.20
2018-03-30T08:24:43.606Z,2.63
2018-03-30T08:27:11.403Z,2.20
2018-03-30T08:29:39.164Z,3.30
2018-03-30T08:32:06.968Z,2.67
2018-03-30T08:34:34.738Z,2.90
2018-03-30T08:37:03.486Z,1.90
2018-03-30T08:39:31.276Z,2.17
2018-03-30T08:41:59.315Z,2.43
2018-03-30T08:44:27.892Z,2.17
2018-03-30T08:46:55.640Z,1.90
2018-03-30T08:49:23.504Z,2.63
2018-03-30T08:51:51.222Z,2.80
2018-03-30T08:54:19.021Z,2.33
2018-03-30T08:56:48.818Z,2.50
2018-03-30T08:59:16.594Z,2.20
2018-03-30T09:01:47.174Z,2.30
2018-03-30T09:04:15.256Z,3.07
2018-03-30T09:06:50.915Z,2.17
2018-03-30T09:09:18.998Z,2.00
2018-03-30T09:11:47.775Z,1.90
2018-03-30T09:14:15.859Z,2.13
2018-03-30T09:16:43.812Z,2.47
2018-03-30T09:19:11.686Z,2.27
2018-03-30T09:21:45.797Z,2.00
2018-03-30T09:24:13.868Z,2.70
2018-03-30T09:26:41.837Z,2.60
2018-03-30T09:29:10.356Z,1.90
2018-03-30T09:31:38.340Z,2.63
2018-03-30T09:34:06.237Z,2.60
2018-03-30T09:36:34.771Z,1.97
2018-03-30T09:39:02.612Z,2.30
2018-03-30T09:41:30.408Z,2.40
2018-03-30T09:43:58.123Z,2.30
2018-03-30T09:46:25.849Z,3.10
2018-03-30T09:48:53.648Z,2.20
2018-03-30T09:51:21.598Z,2.60
2018-03-30T09:53:49.370Z,2.87
2018-03-30T09:56:17.226Z,2.30
2018-03-30T09:58:45.141Z,2.97
2018-03-30T10:01:16.751Z,2.03
2018-03-30T10:03:48.768Z,2.50
2018-03-30T10:06:16.613Z,2.40
2018-03-30T10:08:44.327Z,2.40
2018-03-30T10:11:12.122Z,2.30
2018-03-30T10:13:40.049Z,1.93
2018-03-30T10:16:07.888Z,2.40
2018-03-30T10:18:37.286Z,2.37
2018-03-30T10:21:05.145Z,1.93
2018-03-30T10:23:33.191Z,2.43
2018-03-30T10:26:00.998Z,2.07
2018-03-30T10:28:28.760Z,2.63
2018-03-30T10:30:56.513Z,2.07
2018-03-30T10:33:25.008Z,2.50
2018-03-30T10:35:53.209Z,2.70
2018-03-30T10:38:20.934Z,2.20
2018-03-30T10:40:48.708Z,2.30
2018-03-30T10:43:16.607Z,2.67
2018-03-30T10:45:45.752Z,2.27
2018-03-30T10:48:13.974Z,2.93
2018-03-30T10:50:53.508Z,2.23
2018-03-30T10:53:21.661Z,1.97
2018-03-30T10:55:49.510Z,2.10
2018-03-30T10:58:17.271Z,1.80
2018-03-30T11:00:52.553Z,3.50
2018-03-30T11:03:22.535Z,2.13
2018-03-30T11:05:51.790Z,2.10
2018-03-30T11:08:19.939Z,2.17
2018-03-30T11:10:49.519Z,3.07
2018-03-30T11:13:18.041Z,2.10
2018-03-30T11:15:45.842Z,2.50
2018-03-30T11:18:13.583Z,1.57
2018-03-30T11:20:41.435Z,2.17
2018-03-30T11:23:11.225Z,2.63
2018-03-30T11:25:39.988Z,2.30
2018-03-30T11:28:08.859Z,2.10
2018-03-30T11:30:37.210Z,2.50
2018-03-30T11:33:05.054Z,1.67
2018-03-30T11:35:33.632Z,1.87
2018-03-30T11:38:02.459Z,2.63
2018-03-30T11:40:30.255Z,2.40
2018-03-30T11:42:58.288Z,2.00
2018-03-30T11:45:26.135Z,2.23
2018-03-30T11:47:53.950Z,2.30
2018-03-30T11:50:21.688Z,2.33
2018-03-30T11:52:49.839Z,2.60
2018-03-30T11:55:17.703Z,2.37
2018-03-30T11:57:45.626Z,2.50
2018-03-30T12:00:13.567Z,2.60
2018-03-30T12:02:41.303Z,2.00
2018-03-30T12:05:09.095Z,2.50
2018-03-30T12:07:37.809Z,2.30
2018-03-30T12:10:05.672Z,1.93
2018-03-30T12:12:33.520Z,2.80
2018-03-30T12:15:01.348Z,2.60
2018-03-30T12:17:29.172Z,2.60
2018-03-30T12:19:56.907Z,2.63
2018-03-30T12:22:24.763Z,3.10
2018-03-30T12:24:52.541Z,2.60
2018-03-30T12:27:20.305Z,3.00
2018-03-30T12:29:48.267Z,3.20
2018-03-30T12:32:16.174Z,2.73
2018-03-30T12:34:44.070Z,3.03
2018-03-30T12:37:11.924Z,2.87
2018-03-30T12:39:39.835Z,2.63
2018-03-30T12:42:07.660Z,3.13
2018-03-30T12:44:36.520Z,2.93
2018-03-30T12:47:04.519Z,2.50
2018-03-30T12:49:32.434Z,3.50
2018-03-30T12:52:00.154Z,3.03
2018-03-30T12:54:27.958Z,3.10
2018-03-30T12:56:55.682Z,2.90
2018-03-30T12:59:23.524Z,2.47
2018-03-30T13:01:51.355Z,2.67
2018-03-30T13:04:19.140Z,2.10
2018-03-30T13:06:46.958Z,2.50
2018-03-30T13:09:15.612Z,2.90
2018-03-30T13:11:43.436Z,2.00
2018-03-30T13:14:11.566Z,2.97
2018-03-30T13:16:39.519Z,2.40
2018-03-30T13:19:07.504Z,2.67
2018-03-30T13:21:35.296Z,3.23
2018-03-30T13:24:03.079Z,3.23
2018-03-30T13:26:31.388Z,3.03
2018-03-30T13:28:59.211Z,2.10
2018-03-30T13:31:27.324Z,2.43
2018-03-30T13:33:55.151Z,2.40
2018-03-30T13:36:23.270Z,2.90
2018-03-30T13:38:51.183Z,2.47
2018-03-30T13:41:19.723Z,2.47
2018-03-30T13:43:47.560Z,3.33
2018-03-30T13:46:15.421Z,2.40
2018-03-30T13:48:43.984Z,2.50
2018-03-30T13:51:27.547Z,2.40
2018-03-30T13:53:58.666Z,3.10
2018-03-30T13:56:48.576Z,2.00
2018-03-30T13:59:34.033Z,2.83
2018-03-30T14:15:32.348Z,2.80
2018-03-30T14:18:10.243Z,2.30
2018-03-30T14:20:41.040Z,2.60
2018-03-30T14:23:13.115Z,2.27
2018-03-30T14:26:10.701Z,2.50
2018-03-30T14:28:52.614Z,2.47
2018-03-30T14:31:23.151Z,2.67
2018-03-30T14:33:54.689Z,2.97
2018-03-30T14:36:41.428Z,3.03
2018-03-30T14:39:29.716Z,2.83
2018-03-30T14:41:59.807Z,2.70
2018-03-30T14:44:34.664Z,2.30
2018-03-30T14:47:17.373Z,3.03
2018-03-30T14:49:56.231Z,2.67
2018-03-30T14:52:26.401Z,2.63
2018-03-30T14:55:01.530Z,1.93
2018-03-30T14:57:34.882Z,2.43
2018-03-30T15:13:29.043Z,2.27
2018-03-30T15:16:08.061Z,2.30
2018-03-30T15:18:41.095Z,2.57
2018-03-30T15:21:33.266Z,2.87
2018-03-30T15:24:02.739Z,2.43
2018-03-30T15:26:33.385Z,2.37
2018-03-30T15:29:14.387Z,2.47
2018-03-30T15:31:48.832Z,2.17
2018-03-30T15:34:31.918Z,2.60
2018-03-30T15:37:08.630Z,2.37
2018-03-30T15:39:38.227Z,2.30
2018-03-30T15:42:07.315Z,2.50
2018-03-30T15:44:35.986Z,2.67
2018-03-30T15:47:07.700Z,2.60
2018-03-30T15:49:37.635Z,2.00
2018-03-30T15:52:08.035Z,2.20
2018-03-30T15:54:37.354Z,1.93
2018-03-30T15:57:05.550Z,1.50
2018-03-30T15:59:34.728Z,2.30
2018-03-30T16:02:04.178Z,1.83
2018-03-30T16:04:32.478Z,1.60
2018-03-30T16:07:02.975Z,2.23
2018-03-30T16:09:41.992Z,2.17
2018-03-30T16:12:11.515Z,1.70
2018-03-30T16:14:39.515Z,2.07
2018-03-30T16:40:45.663Z,3.30
2018-03-30T16:43:14.252Z,3.20
2018-03-30T16:45:42.178Z,2.97
2018-03-30T16:48:10.248Z,3.50
2018-03-30T16:50:38.018Z,3.30
2018-03-30T16:53:06.492Z,3.43
2018-03-30T16:55:46.763Z,3.50
2018-03-30T16:58:16.715Z,3.40
2018-03-30T17:00:53.950Z,3.43
2018-03-30T17:03:23.506Z,2.63
2018-03-30T17:05:54.917Z,3.10
2018-03-30T17:08:23.003Z,3.37
2018-03-30T17:10:56.799Z,2.57
2018-03-30T17:13:25.239Z,3.10
2018-03-30T17:15:53.997Z,2.70
2018-03-30T17:18:21.350Z,3.20
2018-03-30T17:20:49.391Z,2.87
2018-03-30T17:23:16.747Z,3.60
2018-03-30T17:25:44.209Z,2.90
2018-03-30T17:28:11.586Z,3.20
2018-03-30T17:30:39.395Z,3.50
2018-03-30T17:33:07.129Z,2.33
2018-03-30T17:35:34.415Z,2.27
2018-03-30T17:38:01.739Z,2.20
2018-03-30T17:40:29.039Z,2.50
2018-03-30T17:42:56.300Z,2.77
2018-03-30T17:45:23.653Z,2.20
2018-03-30T17:47:50.952Z,2.57
2018-03-30T17:50:18.287Z,1.73
2018-03-30T17:52:45.518Z,3.47
2018-03-30T17:55:12.793Z,2.57
2018-03-30T17:57:40.119Z,2.43
2018-03-30T18:00:07.415Z,2.40
2018-03-30T18:02:34.917Z,2.50
2018-03-30T18:05:02.330Z,2.00
2018-03-30T18:07:29.701Z,2.53
2018-03-30T18:09:56.972Z,2.57
2018-03-30T18:12:24.195Z,2.37
2018-03-30T18:14:52.330Z,2.70
2018-03-30T18:17:19.604Z,2.77
2018-03-30T18:19:46.952Z,2.50
2018-03-30T18:22:14.284Z,2.63
2018-03-30T18:24:41.614Z,3.10
2018-03-30T18:27:08.952Z,3.57
2018-03-30T18:29:36.233Z,3.20
2018-03-30T18:32:03.501Z,2.50
2018-03-30T18:34:30.909Z,2.70
2018-03-30T18:36:58.272Z,2.60
2018-03-30T18:39:25.642Z,2.53
2018-03-30T18:41:53.190Z,3.47
2018-03-30T18:44:20.536Z,2.80
2018-03-30T18:46:47.811Z,3.40
2018-03-30T18:49:15.227Z,3.30
2018-03-30T18:51:42.513Z,2.73
2018-03-30T18:54:09.837Z,2.63
2018-03-30T18:56:37.144Z,2.90
2018-03-30T18:59:04.477Z,3.07
2018-03-30T19:01:31.857Z,2.43
2018-03-30T19:04:00.091Z,2.43
2018-03-30T19:06:27.412Z,3.07
2018-03-30T19:08:54.720Z,2.47
2018-03-30T19:11:22.015Z,2.67
2018-03-30T19:13:49.381Z,1.90
2018-03-30T19:16:16.666Z,2.40
2018-03-30T19:18:43.900Z,2.07
2018-03-30T19:21:12.353Z,2.40
2018-03-30T19:23:39.688Z,2.20
2018-03-30T19:26:07.103Z,2.47
2018-03-30T19:28:35.189Z,2.00
2018-03-30T19:31:02.518Z,2.60
2018-03-30T19:33:29.899Z,1.90
2018-03-30T19:35:57.132Z,2.13
2018-03-30T19:38:24.438Z,2.07
2018-03-30T19:40:51.717Z,2.07
2018-03-30T19:43:18.990Z,1.87
2018-03-30T19:45:46.295Z,2.10
2018-03-30T19:48:13.592Z,1.90
2018-03-30T19:50:40.946Z,1.80
2018-03-30T19:53:08.189Z,2.23
2018-03-30T19:55:35.599Z,2.80
2018-03-30T19:58:02.893Z,1.93
2018-03-30T20:00:30.181Z,2.10
2018-03-30T20:02:57.479Z,2.30
2018-03-30T20:05:31.338Z,2.37
2018-03-30T20:07:58.588Z,2.80
2018-03-30T20:10:25.947Z,1.53
2018-03-30T20:12:53.288Z,2.80
2018-03-30T20:15:20.543Z,2.90
2018-03-30T20:17:47.893Z,2.67
2018-03-30T20:20:15.318Z,2.20
2018-03-30T20:22:42.744Z,3.93
2018-03-30T20:25:10.035Z,2.23
2018-03-30T20:27:37.388Z,2.37
2018-03-30T20:30:04.670Z,2.30
2018-03-30T20:32:32.815Z,2.77
2018-03-30T20:35:00.872Z,2.37
2018-03-30T20:37:30.020Z,1.90
2018-03-30T20:39:59.190Z,2.67
2018-03-30T20:42:26.572Z,1.47
2018-03-30T20:44:54.028Z,1.93
2018-03-30T20:47:22.166Z,1.33
2018-03-30T20:49:49.499Z,1.67
2018-03-30T20:52:16.865Z,1.67
2018-03-30T20:54:44.775Z,1.50
2018-03-30T20:57:12.087Z,1.57
2018-03-30T20:59:39.579Z,1.47
2018-03-30T21:02:07.562Z,1.73
2018-03-30T21:04:34.896Z,1.80
2018-03-30T21:07:04.654Z,1.30
2018-03-30T21:09:32.026Z,2.07
2018-03-30T21:11:59.263Z,1.53
2018-03-30T21:14:26.514Z,1.17
2018-03-30T21:16:55.956Z,1.73
2018-03-30T21:19:23.352Z,1.60
2018-03-30T21:21:51.419Z,3.10
2018-03-30T21:24:20.325Z,1.50
2018-03-30T21:26:47.824Z,1.77
2018-03-30T21:29:15.180Z,1.77
2018-03-30T21:31:43.382Z,1.73
2018-03-30T21:34:11.189Z,1.90
2018-03-30T21:36:38.502Z,1.63
2018-03-30T21:39:05.888Z,1.40
2018-03-30T21:41:35.386Z,2.10
2018-03-30T21:44:03.347Z,1.57
2018-03-30T21:46:36.113Z,1.50
2018-03-30T21:49:04.232Z,1.40
2018-03-30T21:51:31.593Z,1.50
2018-03-30T21:53:59.024Z,1.17
2018-03-30T21:56:27.579Z,2.17
2018-03-30T22:01:29.893Z,1.50
2018-03-30T22:03:57.209Z,1.23
2018-03-30T22:06:25.086Z,1.77
2018-03-30T22:08:52.388Z,1.73
2018-03-30T22:11:19.915Z,1.57
2018-03-30T22:13:47.323Z,1.77
2018-03-30T22:16:14.728Z,1.53
2018-03-30T22:18:44.378Z,1.80
2018-03-30T22:21:11.744Z,1.00
2018-03-30T22:23:39.794Z,1.77
2018-03-30T22:26:07.153Z,1.43
2018-03-30T22:28:34.478Z,1.50
2018-03-30T22:31:01.961Z,2.10
2018-03-30T22:33:29.256Z,1.73
2018-03-30T22:35:57.988Z,2.00
2018-03-30T22:38:25.296Z,1.50
2018-03-30T22:40:53.354Z,1.43
2018-03-30T22:43:20.630Z,1.57
2018-03-30T22:45:47.890Z,1.33
2018-03-30T22:48:15.710Z,1.73
2018-03-30T22:50:43.197Z,1.17
2018-03-30T22:53:10.464Z,1.43
2018-03-30T22:55:37.761Z,1.83
2018-03-30T22:58:05.127Z,1.60
2018-03-30T23:00:32.423Z,1.80
2018-03-30T23:02:59.794Z,1.77
2018-03-30T23:05:27.158Z,1.50
2018-03-30T23:07:54.414Z,1.70
2018-03-30T23:10:21.795Z,2.00
2018-03-30T23:12:49.024Z,1.20
2018-03-30T23:15:16.360Z,1.43
2018-03-30T23:17:43.665Z,1.60
2018-03-30T23:20:10.938Z,1.73
2018-03-30T23:22:38.197Z,1.80
2018-03-30T23:25:05.511Z,1.90
2018-03-30T23:27:32.842Z,1.80
2018-03-30T23:30:01.102Z,1.47
2018-03-30T23:32:28.992Z,2.23
2018-03-30T23:34:57.140Z,1.70
2018-03-30T23:37:24.373Z,2.00
2018-03-30T23:39:51.637Z,2.17
2018-03-30T23:42:18.989Z,2.17
2018-03-30T23:44:46.218Z,2.43
2018-03-30T23:47:13.506Z,1.70
2018-03-30T23:49:41.523Z,1.83
2018-03-30T23:52:08.780Z,2.50
2018-03-30T23:54:37.201Z,2.07
2018-03-30T23:57:05.233Z,1.80
2018-03-30T23:59:32.557Z,2.23
